sensor_id;sensor_type;location;lat;lon;timestamp;pressure;altitude;pressure_sealevel;temperature;humidity
51249;BME280;39642;47.556;18.728;2023-08-17T00:00:04;99892.00;;;24.37;60.12
51249;BME280;39642;47.556;18.728;2023-08-17T00:02:34;99892.00;;;24.37;60.12
51249;BME280;39642;47.556;18.728;2023-08-17T00:04:59;99898.28;;;24.36;60.17
51249;BME280;39642;47.556;18.728;2023-08-17T00:07:26;99896.47;;;24.36;60.17
51249;BME280;39642;47.556;18.728;2023-08-17T00:09:52;99888.47;;;24.36;60.20
51249;BME280;39642;47.556;18.728;2023-08-17T00:12:17;99892.13;;;24.35;60.28
51249;BME280;39642;47.556;18.728;2023-08-17T00:14:43;99877.00;;;24.36;60.27
51249;BME280;39642;47.556;18.728;2023-08-17T00:17:09;99879.66;;;24.36;60.26
51249;BME280;39642;47.556;18.728;2023-08-17T00:19:35;99877.13;;;24.34;60.29
51249;BME280;39642;47.556;18.728;2023-08-17T00:22:01;99877.97;;;24.35;60.34
51249;BME280;39642;47.556;18.728;2023-08-17T00:24:27;99876.16;;;24.35;60.34
51249;BME280;39642;47.556;18.728;2023-08-17T00:26:53;99869.00;;;24.36;60.33
51249;BME280;39642;47.556;18.728;2023-08-17T00:29:18;99871.66;;;24.36;60.35
51249;BME280;39642;47.556;18.728;2023-08-17T00:31:44;99876.16;;;24.35;60.40
51249;BME280;39642;47.556;18.728;2023-08-17T00:34:10;99876.16;;;24.35;60.43
51249;BME280;39642;47.556;18.728;2023-08-17T00:36:36;99865.50;;;24.35;60.43
51249;BME280;39642;47.556;18.728;2023-08-17T00:39:02;99862.00;;;24.35;60.45
51249;BME280;39642;47.556;18.728;2023-08-17T00:41:28;99872.66;;;24.35;60.45
51249;BME280;39642;47.556;18.728;2023-08-17T00:43:54;99865.50;;;24.35;60.45
51249;BME280;39642;47.556;18.728;2023-08-17T00:46:20;99865.50;;;24.35;60.49
51249;BME280;39642;47.556;18.728;2023-08-17T00:48:48;99871.81;;;24.34;60.49
51249;BME280;39642;47.556;18.728;2023-08-17T00:51:14;99867.31;;;24.35;60.51
51249;BME280;39642;47.556;18.728;2023-08-17T00:53:41;99869.97;;;24.35;60.57
51249;BME280;39642;47.556;18.728;2023-08-17T00:56:07;99862.94;;;24.34;60.57
51249;BME280;39642;47.556;18.728;2023-08-17T00:58:34;99863.81;;;24.34;60.59
51249;BME280;39642;47.556;18.728;2023-08-17T01:01:00;99874.47;;;24.34;60.63
51249;BME280;39642;47.556;18.728;2023-08-17T01:03:28;99863.81;;;24.34;60.63
51249;BME280;39642;47.556;18.728;2023-08-17T01:05:56;99870.94;;;24.34;60.63
51249;BME280;39642;47.556;18.728;2023-08-17T01:08:22;99878.06;;;24.33;60.66
51249;BME280;39642;47.556;18.728;2023-08-17T01:11:32;99878.06;;;24.33;60.67
51249;BME280;39642;47.556;18.728;2023-08-17T01:14:05;99878.06;;;24.33;60.68
51249;BME280;39642;47.556;18.728;2023-08-17T01:16:40;99882.56;;;24.33;60.67
51249;BME280;39642;47.556;18.728;2023-08-17T01:19:08;99894.03;;;24.33;60.73
51249;BME280;39642;47.556;18.728;2023-08-17T01:21:41;99883.41;;;24.33;60.69
51249;BME280;39642;47.556;18.728;2023-08-17T01:24:08;99888.72;;;24.33;60.69
51249;BME280;39642;47.556;18.728;2023-08-17T01:26:34;99878.91;;;24.34;60.71
51249;BME280;39642;47.556;18.728;2023-08-17T01:29:00;99881.56;;;24.34;60.72
51249;BME280;39642;47.556;18.728;2023-08-17T01:31:42;99871.91;;;24.33;60.70
51249;BME280;39642;47.556;18.728;2023-08-17T01:34:10;99878.06;;;24.33;60.68
51249;BME280;39642;47.556;18.728;2023-08-17T01:36:48;99875.50;;;24.31;60.73
51249;BME280;39642;47.556;18.728;2023-08-17T01:39:16;99879.03;;;24.32;60.71
51249;BME280;39642;47.556;18.728;2023-08-17T01:41:43;99872.84;;;24.31;60.74
51249;BME280;39642;47.556;18.728;2023-08-17T01:44:11;99873.72;;;24.32;60.75
51249;BME280;39642;47.556;18.728;2023-08-17T01:46:37;99873.72;;;24.32;60.71
51249;BME280;39642;47.556;18.728;2023-08-17T01:49:03;99869.16;;;24.34;60.66
51249;BME280;39642;47.556;18.728;2023-08-17T01:51:28;99865.75;;;24.32;60.73
51249;BME280;39642;47.556;18.728;2023-08-17T01:53:54;99871.06;;;24.32;60.76
51249;BME280;39642;47.556;18.728;2023-08-17T01:56:20;99872.84;;;24.31;60.80
51249;BME280;39642;47.556;18.728;2023-08-17T01:58:46;99867.44;;;24.33;60.74
51249;BME280;39642;47.556;18.728;2023-08-17T02:01:12;99859.53;;;24.31;60.84
51249;BME280;39642;47.556;18.728;2023-08-17T02:03:38;99867.66;;;24.30;60.80
51249;BME280;39642;47.556;18.728;2023-08-17T02:06:04;99870.19;;;24.31;60.81
51249;BME280;39642;47.556;18.728;2023-08-17T02:08:32;99871.16;;;24.30;60.82
51249;BME280;39642;47.556;18.728;2023-08-17T02:10:59;99877.34;;;24.31;60.87
51249;BME280;39642;47.556;18.728;2023-08-17T02:13:25;99874.66;;;24.31;60.85
51249;BME280;39642;47.556;18.728;2023-08-17T02:15:52;99875.50;;;24.31;60.83
51249;BME280;39642;47.556;18.728;2023-08-17T02:18:18;99872.97;;;24.30;60.84
51249;BME280;39642;47.556;18.728;2023-08-17T02:20:45;99872.97;;;24.30;60.84
51249;BME280;39642;47.556;18.728;2023-08-17T02:23:11;99878.31;;;24.30;60.84
51249;BME280;39642;47.556;18.728;2023-08-17T02:25:40;99880.97;;;24.30;60.85
51249;BME280;39642;47.556;18.728;2023-08-17T02:28:06;99877.44;;;24.29;60.85
51249;BME280;39642;47.556;18.728;2023-08-17T02:30:32;99874.78;;;24.29;60.84
51249;BME280;39642;47.556;18.728;2023-08-17T02:32:58;99875.75;;;24.28;60.84
51249;BME280;39642;47.556;18.728;2023-08-17T02:35:24;99882.75;;;24.29;60.83
51249;BME280;39642;47.556;18.728;2023-08-17T02:37:50;99878.31;;;24.30;60.78
51249;BME280;39642;47.556;18.728;2023-08-17T02:40:16;99880.09;;;24.29;60.80
51249;BME280;39642;47.556;18.728;2023-08-17T02:42:42;99879.25;;;24.29;60.82
51249;BME280;39642;47.556;18.728;2023-08-17T02:45:08;99878.31;;;24.30;60.79
51249;BME280;39642;47.556;18.728;2023-08-17T02:47:34;99879.25;;;24.29;60.80
51249;BME280;39642;47.556;18.728;2023-08-17T02:50:00;99882.75;;;24.29;60.78
51249;BME280;39642;47.556;18.728;2023-08-17T02:52:26;99884.56;;;24.29;60.79
51249;BME280;39642;47.556;18.728;2023-08-17T02:54:52;99880.97;;;24.30;60.75
51249;BME280;39642;47.556;18.728;2023-08-17T02:57:17;99883.62;;;24.30;60.80
51249;BME280;39642;47.556;18.728;2023-08-17T02:59:44;99887.22;;;24.29;60.75
51249;BME280;39642;47.556;18.728;2023-08-17T03:02:10;99882.75;;;24.29;60.79
51249;BME280;39642;47.556;18.728;2023-08-17T03:04:36;99879.25;;;24.29;60.76
51249;BME280;39642;47.556;18.728;2023-08-17T03:07:01;99870.44;;;24.28;60.78
51249;BME280;39642;47.556;18.728;2023-08-17T03:09:27;99874.91;;;24.28;60.81
51249;BME280;39642;47.556;18.728;2023-08-17T03:11:53;99869.44;;;24.29;60.84
51249;BME280;39642;47.556;18.728;2023-08-17T03:14:19;99865.09;;;24.28;60.78
51249;BME280;39642;47.556;18.728;2023-08-17T03:16:45;99860.75;;;24.27;60.76
51249;BME280;39642;47.556;18.728;2023-08-17T03:19:12;99865.09;;;24.28;60.79
51249;BME280;39642;47.556;18.728;2023-08-17T03:21:38;99863.28;;;24.29;60.78
51249;BME280;39642;47.556;18.728;2023-08-17T03:24:04;99863.41;;;24.27;60.83
51249;BME280;39642;47.556;18.728;2023-08-17T03:26:30;99862.44;;;24.28;60.84
51249;BME280;39642;47.556;18.728;2023-08-17T03:28:56;99861.59;;;24.28;60.83
51249;BME280;39642;47.556;18.728;2023-08-17T03:31:22;99863.41;;;24.27;60.86
51249;BME280;39642;47.556;18.728;2023-08-17T03:33:48;99874.06;;;24.27;60.85
51249;BME280;39642;47.556;18.728;2023-08-17T03:36:14;99867.88;;;24.27;60.88
51249;BME280;39642;47.556;18.728;2023-08-17T03:38:40;99870.53;;;24.27;60.94
51249;BME280;39642;47.556;18.728;2023-08-17T03:41:06;99863.53;;;24.26;60.90
51249;BME280;39642;47.556;18.728;2023-08-17T03:43:32;99864.37;;;24.26;60.90
51249;BME280;39642;47.556;18.728;2023-08-17T03:45:58;99867.88;;;24.27;60.91
51249;BME280;39642;47.556;18.728;2023-08-17T03:48:24;99874.06;;;24.27;60.89
51249;BME280;39642;47.556;18.728;2023-08-17T03:50:56;99867.03;;;24.26;60.92
51249;BME280;39642;47.556;18.728;2023-08-17T03:53:22;99872.34;;;24.26;60.93
51249;BME280;39642;47.556;18.728;2023-08-17T03:55:49;99869.69;;;24.26;60.92
51249;BME280;39642;47.556;18.728;2023-08-17T03:58:15;99867.88;;;24.27;60.92
51249;BME280;39642;47.556;18.728;2023-08-17T04:00:41;99867.03;;;24.26;60.89
51249;BME280;39642;47.556;18.728;2023-08-17T04:03:08;99866.19;;;24.26;60.93
51249;BME280;39642;47.556;18.728;2023-08-17T04:05:34;99871.50;;;24.26;60.90
51249;BME280;39642;47.556;18.728;2023-08-17T04:08:00;99871.50;;;24.26;60.93
51249;BME280;39642;47.556;18.728;2023-08-17T04:10:28;99865.34;;;24.25;60.89
51249;BME280;39642;47.556;18.728;2023-08-17T04:12:57;99868.00;;;24.25;60.87
51249;BME280;39642;47.556;18.728;2023-08-17T04:15:23;99873.31;;;24.25;60.86
51249;BME280;39642;47.556;18.728;2023-08-17T04:17:49;99866.19;;;24.26;60.87
51249;BME280;39642;47.556;18.728;2023-08-17T04:20:15;99862.69;;;24.25;60.84
51249;BME280;39642;47.556;18.728;2023-08-17T04:22:41;99866.19;;;24.26;60.90
51249;BME280;39642;47.556;18.728;2023-08-17T04:25:07;99861.69;;;24.26;60.87
51249;BME280;39642;47.556;18.728;2023-08-17T04:27:33;99868.94;;;24.24;60.87
51249;BME280;39642;47.556;18.728;2023-08-17T04:30:00;99865.34;;;24.25;60.84
51249;BME280;39642;47.556;18.728;2023-08-17T04:32:26;99869.69;;;24.26;60.85
51249;BME280;39642;47.556;18.728;2023-08-17T04:34:52;99876.81;;;24.26;60.86
51249;BME280;39642;47.556;18.728;2023-08-17T04:37:17;99871.50;;;24.26;60.83
51249;BME280;39642;47.556;18.728;2023-08-17T04:39:43;99874.16;;;24.26;60.83
51249;BME280;39642;47.556;18.728;2023-08-17T04:42:10;99867.03;;;24.26;60.82
51249;BME280;39642;47.556;18.728;2023-08-17T04:44:36;99868.84;;;24.26;60.83
51249;BME280;39642;47.556;18.728;2023-08-17T04:47:02;99866.19;;;24.26;60.82
51249;BME280;39642;47.556;18.728;2023-08-17T04:49:28;99866.19;;;24.26;60.81
51249;BME280;39642;47.556;18.728;2023-08-17T04:51:54;99870.66;;;24.25;60.80
51249;BME280;39642;47.556;18.728;2023-08-17T04:54:19;99875.09;;;24.25;60.83
51249;BME280;39642;47.556;18.728;2023-08-17T04:56:45;99875.09;;;24.25;60.86
51249;BME280;39642;47.556;18.728;2023-08-17T04:59:11;99883.97;;;24.25;60.83
51249;BME280;39642;47.556;18.728;2023-08-17T05:01:37;99881.31;;;24.25;60.84
51249;BME280;39642;47.556;18.728;2023-08-17T05:04:04;99873.31;;;24.25;60.76
51249;BME280;39642;47.556;18.728;2023-08-17T05:06:30;99882.16;;;24.26;60.78
51249;BME280;39642;47.556;18.728;2023-08-17T05:08:57;99882.16;;;24.26;60.75
51249;BME280;39642;47.556;18.728;2023-08-17T05:11:23;99891.06;;;24.25;60.76
51249;BME280;39642;47.556;18.728;2023-08-17T05:13:49;99887.47;;;24.26;60.78
51249;BME280;39642;47.556;18.728;2023-08-17T05:16:15;99889.28;;;24.25;60.79
51249;BME280;39642;47.556;18.728;2023-08-17T05:18:40;99884.91;;;24.24;60.77
51249;BME280;39642;47.556;18.728;2023-08-17T05:21:06;99884.06;;;24.24;60.84
51249;BME280;39642;47.556;18.728;2023-08-17T05:23:33;99884.91;;;24.24;60.87
51249;BME280;39642;47.556;18.728;2023-08-17T05:25:59;99879.72;;;24.23;60.87
51249;BME280;39642;47.556;18.728;2023-08-17T05:28:26;99880.56;;;24.23;60.88
51249;BME280;39642;47.556;18.728;2023-08-17T05:30:53;99874.25;;;24.24;60.87
51249;BME280;39642;47.556;18.728;2023-08-17T05:33:19;99873.44;;;24.24;60.95
51249;BME280;39642;47.556;18.728;2023-08-17T05:35:45;99877.91;;;24.23;60.94
51249;BME280;39642;47.556;18.728;2023-08-17T05:38:11;99870.87;;;24.22;61.01
51249;BME280;39642;47.556;18.728;2023-08-17T05:40:37;99873.44;;;24.24;61.04
51249;BME280;39642;47.556;18.728;2023-08-17T05:43:03;99864.47;;;24.25;61.04
51249;BME280;39642;47.556;18.728;2023-08-17T05:45:29;99862.78;;;24.24;61.09
51249;BME280;39642;47.556;18.728;2023-08-17T05:47:55;99869.78;;;24.25;61.15
51249;BME280;39642;47.556;18.728;2023-08-17T05:50:20;99869.78;;;24.25;61.09
51249;BME280;39642;47.556;18.728;2023-08-17T05:52:46;99872.44;;;24.25;61.13
51249;BME280;39642;47.556;18.728;2023-08-17T05:55:12;99880.44;;;24.25;61.11
51249;BME280;39642;47.556;18.728;2023-08-17T05:57:38;99883.09;;;24.25;61.10
51249;BME280;39642;47.556;18.728;2023-08-17T06:00:04;99891.06;;;24.25;61.12
51249;BME280;39642;47.556;18.728;2023-08-17T06:02:30;99891.94;;;24.25;61.17
51249;BME280;39642;47.556;18.728;2023-08-17T06:04:56;99881.31;;;24.25;61.24
51249;BME280;39642;47.556;18.728;2023-08-17T06:07:22;99888.31;;;24.26;61.16
51249;BME280;39642;47.556;18.728;2023-08-17T06:09:48;99884.72;;;24.27;61.13
51249;BME280;39642;47.556;18.728;2023-08-17T06:12:14;99884.72;;;24.27;61.21
51249;BME280;39642;47.556;18.728;2023-08-17T06:14:40;99885.53;;;24.28;61.22
51249;BME280;39642;47.556;18.728;2023-08-17T06:17:07;99885.53;;;24.28;61.21
51249;BME280;39642;47.556;18.728;2023-08-17T06:19:33;99882.03;;;24.27;61.21
51249;BME280;39642;47.556;18.728;2023-08-17T06:21:59;99878.50;;;24.27;61.16
51249;BME280;39642;47.556;18.728;2023-08-17T06:24:25;99882.03;;;24.27;61.16
51249;BME280;39642;47.556;18.728;2023-08-17T06:26:51;99882.75;;;24.29;61.15
51249;BME280;39642;47.556;18.728;2023-08-17T06:29:16;99879.25;;;24.29;61.13
51249;BME280;39642;47.556;18.728;2023-08-17T06:31:42;99877.44;;;24.29;61.16
51249;BME280;39642;47.556;18.728;2023-08-17T06:34:08;99878.31;;;24.30;61.15
51249;BME280;39642;47.556;18.728;2023-08-17T06:36:38;99877.44;;;24.29;61.12
51249;BME280;39642;47.556;18.728;2023-08-17T06:39:04;99870.31;;;24.30;61.12
51249;BME280;39642;47.556;18.728;2023-08-17T06:41:30;99880.00;;;24.31;61.15
51249;BME280;39642;47.556;18.728;2023-08-17T06:43:56;99872.00;;;24.31;61.08
51249;BME280;39642;47.556;18.728;2023-08-17T06:46:22;99876.38;;;24.32;61.19
51249;BME280;39642;47.556;18.728;2023-08-17T06:48:48;99879.87;;;24.33;61.24
51249;BME280;39642;47.556;18.728;2023-08-17T06:51:14;99875.41;;;24.33;61.11
51249;BME280;39642;47.556;18.728;2023-08-17T06:53:40;99876.16;;;24.35;61.22
51249;BME280;39642;47.556;18.728;2023-08-17T06:56:06;99883.06;;;24.38;61.05
51249;BME280;39642;47.556;18.728;2023-08-17T06:58:32;99881.22;;;24.38;60.82
51249;BME280;39642;47.556;18.728;2023-08-17T07:00:58;99879.31;;;24.40;60.83
51249;BME280;39642;47.556;18.728;2023-08-17T07:03:24;99878.47;;;24.40;60.79
51249;BME280;39642;47.556;18.728;2023-08-17T07:05:50;99881.03;;;24.41;60.71
51249;BME280;39642;47.556;18.728;2023-08-17T07:08:16;99878.37;;;24.41;60.67
51249;BME280;39642;47.556;18.728;2023-08-17T07:10:42;99879.22;;;24.42;60.64
51249;BME280;39642;47.556;18.728;2023-08-17T07:13:08;99873.03;;;24.41;60.59
51249;BME280;39642;47.556;18.728;2023-08-17T07:15:34;99874.84;;;24.41;60.65
51249;BME280;39642;47.556;18.728;2023-08-17T07:18:00;99866.84;;;24.41;60.62
51249;BME280;39642;47.556;18.728;2023-08-17T07:20:25;99863.34;;;24.40;60.63
51249;BME280;39642;47.556;18.728;2023-08-17T07:22:51;99855.34;;;24.40;60.60
51249;BME280;39642;47.556;18.728;2023-08-17T07:25:17;99858.88;;;24.41;60.60
51249;BME280;39642;47.556;18.728;2023-08-17T07:27:43;99852.59;;;24.42;60.58
51249;BME280;39642;47.556;18.728;2023-08-17T07:30:10;99856.09;;;24.42;60.54
51249;BME280;39642;47.556;18.728;2023-08-17T07:32:36;99855.00;;;24.45;60.71
51249;BME280;39642;47.556;18.728;2023-08-17T07:35:02;99841.84;;;24.43;60.79
51249;BME280;39642;47.556;18.728;2023-08-17T07:37:28;99849.09;;;24.41;60.67
51249;BME280;39642;47.556;18.728;2023-08-17T07:39:59;99860.69;;;24.40;60.74
51249;BME280;39642;47.556;18.728;2023-08-17T07:42:25;99863.34;;;24.40;60.79
51249;BME280;39642;47.556;18.728;2023-08-17T07:44:51;99871.22;;;24.42;60.68
51249;BME280;39642;47.556;18.728;2023-08-17T07:47:16;99869.31;;;24.44;60.63
51249;BME280;39642;47.556;18.728;2023-08-17T07:49:42;99875.47;;;24.44;60.59
51249;BME280;39642;47.556;18.728;2023-08-17T07:52:08;99877.06;;;24.47;60.62
51249;BME280;39642;47.556;18.728;2023-08-17T07:54:34;99876.88;;;24.50;60.39
51249;BME280;39642;47.556;18.728;2023-08-17T07:57:00;99881.22;;;24.51;60.41
51249;BME280;39642;47.556;18.728;2023-08-17T07:59:26;99874.81;;;24.54;60.36
51249;BME280;39642;47.556;18.728;2023-08-17T08:01:52;99876.41;;;24.56;60.31
51249;BME280;39642;47.556;18.728;2023-08-17T08:04:18;99878.97;;;24.58;60.22
51249;BME280;39642;47.556;18.728;2023-08-17T08:06:44;99870.00;;;24.59;60.20
51249;BME280;39642;47.556;18.728;2023-08-17T08:09:10;99865.41;;;24.61;60.19
51249;BME280;39642;47.556;18.728;2023-08-17T08:11:35;99861.78;;;24.62;60.12
51249;BME280;39642;47.556;18.728;2023-08-17T08:14:01;99860.81;;;24.63;60.05
51249;BME280;39642;47.556;18.728;2023-08-17T08:16:28;99865.31;;;24.62;59.98
51249;BME280;39642;47.556;18.728;2023-08-17T08:18:56;99865.19;;;24.64;59.84
51249;BME280;39642;47.556;18.728;2023-08-17T08:21:22;99865.06;;;24.65;59.72
51249;BME280;39642;47.556;18.728;2023-08-17T08:23:48;99865.94;;;24.66;59.65
51249;BME280;39642;47.556;18.728;2023-08-17T08:26:14;99864.13;;;24.66;59.64
51249;BME280;39642;47.556;18.728;2023-08-17T08:28:40;99864.97;;;24.67;59.63
51249;BME280;39642;47.556;18.728;2023-08-17T08:31:06;99862.28;;;24.67;59.63
51249;BME280;39642;47.556;18.728;2023-08-17T08:33:32;99864.97;;;24.67;59.64
51249;BME280;39642;47.556;18.728;2023-08-17T08:35:58;99865.94;;;24.66;59.71
51249;BME280;39642;47.556;18.728;2023-08-17T08:38:24;99865.06;;;24.65;59.71
51249;BME280;39642;47.556;18.728;2023-08-17T08:40:50;99867.62;;;24.67;59.65
51249;BME280;39642;47.556;18.728;2023-08-17T08:43:17;99866.78;;;24.66;59.65
51249;BME280;39642;47.556;18.728;2023-08-17T08:45:44;99865.94;;;24.66;59.65
51249;BME280;39642;47.556;18.728;2023-08-17T08:48:13;99875.72;;;24.65;59.62
51249;BME280;39642;47.556;18.728;2023-08-17T08:50:40;99868.59;;;24.66;59.66
51249;BME280;39642;47.556;18.728;2023-08-17T08:53:17;99869.44;;;24.66;59.64
51249;BME280;39642;47.556;18.728;2023-08-17T08:55:57;99868.59;;;24.66;59.63
51249;BME280;39642;47.556;18.728;2023-08-17T08:58:25;99873.91;;;24.66;59.74
51249;BME280;39642;47.556;18.728;2023-08-17T09:00:52;99879.25;;;24.66;59.67
51249;BME280;39642;47.556;18.728;2023-08-17T09:03:18;99877.53;;;24.65;59.68
51249;BME280;39642;47.556;18.728;2023-08-17T09:05:49;99880.19;;;24.65;59.74
51249;BME280;39642;47.556;18.728;2023-08-17T09:08:22;99881.91;;;24.66;59.74
51249;BME280;39642;47.556;18.728;2023-08-17T09:10:51;99875.72;;;24.65;59.67
51249;BME280;39642;47.556;18.728;2023-08-17T09:13:16;99873.91;;;24.66;59.66
51249;BME280;39642;47.556;18.728;2023-08-17T09:15:43;99866.88;;;24.65;59.71
51249;BME280;39642;47.556;18.728;2023-08-17T09:18:09;99866.88;;;24.65;59.76
51249;BME280;39642;47.556;18.728;2023-08-17T09:20:37;99865.31;;;24.62;60.05
51249;BME280;39642;47.556;18.728;2023-08-17T09:23:16;99869.88;;;24.60;59.99
51249;BME280;39642;47.556;18.728;2023-08-17T09:25:46;99863.63;;;24.61;59.92
51249;BME280;39642;47.556;18.728;2023-08-17T09:28:14;99862.75;;;24.61;59.91
51249;BME280;39642;47.556;18.728;2023-08-17T09:30:57;99856.47;;;24.62;59.88
51249;BME280;39642;47.556;18.728;2023-08-17T09:33:25;99859.97;;;24.62;59.91
51249;BME280;39642;47.556;18.728;2023-08-17T09:35:52;99852.00;;;24.62;59.84
51249;BME280;39642;47.556;18.728;2023-08-17T09:38:19;99846.56;;;24.64;59.85
51249;BME280;39642;47.556;18.728;2023-08-17T09:40:46;99853.72;;;24.63;59.93
51249;BME280;39642;47.556;18.728;2023-08-17T09:43:14;99842.19;;;24.63;59.97
51249;BME280;39642;47.556;18.728;2023-08-17T09:45:40;99849.22;;;24.64;59.95
51249;BME280;39642;47.556;18.728;2023-08-17T09:48:08;99846.56;;;24.64;59.90
51249;BME280;39642;47.556;18.728;2023-08-17T09:50:35;99843.91;;;24.64;59.85
51249;BME280;39642;47.556;18.728;2023-08-17T09:53:02;99841.25;;;24.64;59.82
51249;BME280;39642;47.556;18.728;2023-08-17T09:55:30;99841.25;;;24.64;59.80
51249;BME280;39642;47.556;18.728;2023-08-17T09:57:59;99840.25;;;24.65;59.80
51249;BME280;39642;47.556;18.728;2023-08-17T10:00:27;99825.25;;;24.64;59.80
51249;BME280;39642;47.556;18.728;2023-08-17T10:02:53;99835.91;;;24.64;59.82
51249;BME280;39642;47.556;18.728;2023-08-17T10:05:20;99827.09;;;24.63;59.77
51249;BME280;39642;47.556;18.728;2023-08-17T10:07:49;99826.22;;;24.63;59.82
51249;BME280;39642;47.556;18.728;2023-08-17T10:10:22;99827.09;;;24.63;59.89
51249;BME280;39642;47.556;18.728;2023-08-17T10:12:59;99830.59;;;24.64;59.85
51249;BME280;39642;47.556;18.728;2023-08-17T10:15:32;99825.25;;;24.64;59.79
51249;BME280;39642;47.556;18.728;2023-08-17T10:18:09;99826.09;;;24.64;59.73
51249;BME280;39642;47.556;18.728;2023-08-17T10:20:40;99823.44;;;24.64;59.74
51249;BME280;39642;47.556;18.728;2023-08-17T10:23:12;99826.94;;;24.65;59.79
51249;BME280;39642;47.556;18.728;2023-08-17T10:25:41;99818.97;;;24.65;59.79
51249;BME280;39642;47.556;18.728;2023-08-17T10:28:09;99827.69;;;24.67;59.71
51249;BME280;39642;47.556;18.728;2023-08-17T10:30:36;99822.34;;;24.67;59.75
51249;BME280;39642;47.556;18.728;2023-08-17T10:33:03;99820.53;;;24.67;59.72
51249;BME280;39642;47.556;18.728;2023-08-17T10:35:31;99817.87;;;24.67;59.72
51249;BME280;39642;47.556;18.728;2023-08-17T10:37:58;99818.75;;;24.68;59.64
51249;BME280;39642;47.556;18.728;2023-08-17T10:40:27;99819.59;;;24.68;59.68
51249;BME280;39642;47.556;18.728;2023-08-17T10:42:54;99825.75;;;24.69;59.64
51249;BME280;39642;47.556;18.728;2023-08-17T10:45:28;99820.44;;;24.69;59.64
51249;BME280;39642;47.556;18.728;2023-08-17T10:50:36;99823.94;;;24.69;59.63
51249;BME280;39642;47.556;18.728;2023-08-17T10:53:10;99824.06;;;24.68;59.67
51249;BME280;39642;47.556;18.728;2023-08-17T10:58:04;99827.44;;;24.70;59.64
51249;BME280;39642;47.556;18.728;2023-08-17T11:00:37;99821.41;;;24.68;59.65
51249;BME280;39642;47.556;18.728;2023-08-17T11:03:08;99812.44;;;24.69;59.64
51249;BME280;39642;47.556;18.728;2023-08-17T11:05:42;99817.75;;;24.69;59.62
51249;BME280;39642;47.556;18.728;2023-08-17T11:08:33;99816.91;;;24.68;59.62
51249;BME280;39642;47.556;18.728;2023-08-17T11:11:11;99818.75;;;24.68;59.60
51249;BME280;39642;47.556;18.728;2023-08-17T11:13:43;99816.91;;;24.68;59.58
51249;BME280;39642;47.556;18.728;2023-08-17T11:16:11;99818.84;;;24.66;59.62
51249;BME280;39642;47.556;18.728;2023-08-17T11:18:37;99818.75;;;24.68;59.58
51249;BME280;39642;47.556;18.728;2023-08-17T11:21:05;99814.38;;;24.67;59.63
51249;BME280;39642;47.556;18.728;2023-08-17T11:23:33;99809.03;;;24.67;59.62
51249;BME280;39642;47.556;18.728;2023-08-17T11:26:00;99810.75;;;24.68;59.60
51249;BME280;39642;47.556;18.728;2023-08-17T11:28:26;99810.75;;;24.68;59.57
51249;BME280;39642;47.556;18.728;2023-08-17T11:31:00;99817.75;;;24.69;59.55
51249;BME280;39642;47.556;18.728;2023-08-17T11:33:27;99812.44;;;24.69;59.55
51249;BME280;39642;47.556;18.728;2023-08-17T11:36:00;99808.81;;;24.70;59.41
51249;BME280;39642;47.556;18.728;2023-08-17T11:38:30;99817.41;;;24.73;59.28
51249;BME280;39642;47.556;18.728;2023-08-17T11:40:57;99818.03;;;24.77;59.10
51249;BME280;39642;47.556;18.728;2023-08-17T11:43:23;99821.31;;;24.81;59.00
51249;BME280;39642;47.556;18.728;2023-08-17T11:45:49;99813.94;;;24.84;58.85
51249;BME280;39642;47.556;18.728;2023-08-17T11:48:15;99813.47;;;24.90;58.70
51249;BME280;39642;47.556;18.728;2023-08-17T11:50:42;99815.78;;;24.95;58.54
51249;BME280;39642;47.556;18.728;2023-08-17T11:53:08;99810.31;;;24.97;58.48
51249;BME280;39642;47.556;18.728;2023-08-17T11:55:34;99810.22;;;24.98;58.46
51249;BME280;39642;47.556;18.728;2023-08-17T11:58:02;99807.66;;;24.97;58.51
51249;BME280;39642;47.556;18.728;2023-08-17T12:00:35;99806.81;;;24.96;58.53
51249;BME280;39642;47.556;18.728;2023-08-17T12:03:02;99809.59;;;24.94;58.57
51249;BME280;39642;47.556;18.728;2023-08-17T12:05:31;99806.34;;;24.91;58.70
51249;BME280;39642;47.556;18.728;2023-08-17T12:07:59;99807.53;;;24.87;58.80
51249;BME280;39642;47.556;18.728;2023-08-17T12:10:27;99803.28;;;24.84;58.91
51249;BME280;39642;47.556;18.728;2023-08-17T12:13:00;99803.50;;;24.81;58.97
51249;BME280;39642;47.556;18.728;2023-08-17T12:15:34;99807.25;;;24.79;59.06
51249;BME280;39642;47.556;18.728;2023-08-17T12:18:03;99800.12;;;24.79;59.06
51249;BME280;39642;47.556;18.728;2023-08-17T12:20:30;99804.72;;;24.77;59.13
51249;BME280;39642;47.556;18.728;2023-08-17T12:22:58;99802.06;;;24.77;59.11
51249;BME280;39642;47.556;18.728;2023-08-17T12:25:27;99795.75;;;24.78;59.00
51249;BME280;39642;47.556;18.728;2023-08-17T12:27:53;99792.84;;;24.81;58.96
51249;BME280;39642;47.556;18.728;2023-08-17T12:30:30;99784.66;;;24.84;58.79
51249;BME280;39642;47.556;18.728;2023-08-17T12:33:02;99790.47;;;24.89;58.64
51249;BME280;39642;47.556;18.728;2023-08-17T12:35:28;99786.59;;;24.93;58.42
51249;BME280;39642;47.556;18.728;2023-08-17T12:37:54;99783.56;;;24.98;58.25
51249;BME280;39642;47.556;18.728;2023-08-17T12:40:20;99779.81;;;25.01;58.22
51249;BME280;39642;47.556;18.728;2023-08-17T12:42:47;99777.78;;;25.04;58.34
51249;BME280;39642;47.556;18.728;2023-08-17T12:45:13;99769.44;;;25.09;58.15
51249;BME280;39642;47.556;18.728;2023-08-17T12:47:39;99764.56;;;25.14;57.97
51249;BME280;39642;47.556;18.728;2023-08-17T12:50:06;99767.13;;;25.16;57.92
51249;BME280;39642;47.556;18.728;2023-08-17T12:52:34;99761.19;;;25.12;58.02
51249;BME280;39642;47.556;18.728;2023-08-17T12:55:00;99753.44;;;25.09;57.97